Time;durP1;ratioP1;P1;durP2;ratioP2;P2;SDS_P1;SDS_P2;PMS_P1;PMS_P2;Temp;Humidity;BMP_temperature;BMP_pressure;BME280_temperature;BME280_humidity;BME280_pressure;Samples;Min_cycle;Max_cycle;Signal;HPM_P1;HPM_P2
2022/01/01 00:00:13;;;;;;;8.55;5.35;;;;;;;;;;4952297;29;20054;-64
2022/01/01 00:02:45;;;;;;;7.63;3.53;;;;;;;;;;4952485;29;20058;-64
2022/01/01 00:05:16;;;;;;;6.03;3.15;;;;;;;;;;4921136;29;20048;-64
2022/01/01 00:07:46;;;;;;;10.77;4.57;;;;;;;;;;4939017;28;20066;-64
2022/01/01 00:10:18;;;;;;;9.35;6.30;;;;;;;;;;4971263;28;20474;-64
2022/01/01 00:12:49;;;;;;;10.68;6.25;;;;;;;;;;4976532;28;20062;-64
2022/01/01 00:15:20;;;;;;;7.53;4.28;;;;;;;;;;4991068;28;20054;-66
2022/01/01 00:17:51;;;;;;;10.15;3.53;;;;;;;;;;4990983;28;20062;-64
2022/01/01 00:20:21;;;;;;;7.78;3.33;;;;;;;;;;4990869;28;20058;-64
2022/01/01 00:22:51;;;;;;;9.25;3.28;;;;;;;;;;4990682;28;20057;-64
2022/01/01 00:25:22;;;;;;;6.40;3.05;;;;;;;;;;4990848;28;20066;-64
2022/01/01 00:27:53;;;;;;;11.25;3.75;;;;;;;;;;4990778;28;20509;-64
2022/01/01 00:30:23;;;;;;;8.30;3.88;;;;;;;;;;4970982;28;20066;-65
2022/01/01 00:32:53;;;;;;;6.97;3.33;;;;;;;;;;4971074;28;20068;-66
2022/01/01 00:35:24;;;;;;;18.35;9.43;;;;;;;;;;4971241;28;20062;-64
2022/01/01 00:37:55;;;;;;;16.98;7.22;;;;;;;;;;4971299;28;20059;-64
2022/01/01 00:40:25;;;;;;;14.18;4.93;;;;;;;;;;4971162;28;20047;-64
2022/01/01 00:42:55;;;;;;;12.07;5.35;;;;;;;;;;4971071;28;20055;-64
2022/01/01 00:45:25;;;;;;;8.57;3.85;;;;;;;;;;5006594;28;20425;-64
2022/01/01 00:47:55;;;;;;;6.45;3.58;;;;;;;;;;4999721;28;20097;-64
2022/01/01 00:50:25;;;;;;;12.85;5.13;;;;;;;;;;4990187;28;20061;-65
2022/01/01 00:53:03;;;;;;;11.63;5.07;;;;;;;;;;4942081;28;20061;-65
2022/01/01 00:55:33;;;;;;;11.43;6.75;;;;;;;;;;4970590;28;20071;-65
2022/01/01 00:58:04;;;;;;;12.05;7.00;;;;;;;;;;4951019;28;20062;-64
2022/01/01 01:00:34;;;;;;;10.13;5.30;;;;;;;;;;4951618;28;20515;-64
2022/01/01 01:03:13;;;;;;;11.38;5.07;;;;;;;;;;4951117;28;20066;-64
2022/01/01 01:05:46;;;;;;;12.27;3.90;;;;;;;;;;4931953;29;20047;-64
2022/01/01 01:08:18;;;;;;;9.50;4.07;;;;;;;;;;4939616;29;20056;-64
2022/01/01 01:10:48;;;;;;;7.78;3.70;;;;;;;;;;4950805;29;20054;-63
2022/01/01 01:13:20;;;;;;;8.93;4.13;;;;;;;;;;4951380;29;20059;-63
2022/01/01 01:15:51;;;;;;;18.42;6.57;;;;;;;;;;4970103;28;20057;-65
2022/01/01 01:18:21;;;;;;;10.68;5.40;;;;;;;;;;4966253;28;20062;-65
2022/01/01 01:20:52;;;;;;;10.27;3.80;;;;;;;;;;4947066;29;20086;-64
2022/01/01 01:23:23;;;;;;;9.27;4.95;;;;;;;;;;4931600;29;20443;-67
2022/01/01 01:25:55;;;;;;;10.38;5.53;;;;;;;;;;4947441;29;20059;-64
2022/01/01 01:28:25;;;;;;;13.10;6.38;;;;;;;;;;4931028;29;20070;-64
2022/01/01 01:30:55;;;;;;;14.50;6.22;;;;;;;;;;4931204;29;20059;-66
2022/01/01 01:33:26;;;;;;;10.73;5.05;;;;;;;;;;4930983;29;20056;-64
2022/01/01 01:35:56;;;;;;;12.30;5.35;;;;;;;;;;4920160;29;20064;-64
2022/01/01 01:38:26;;;;;;;11.60;5.57;;;;;;;;;;4931086;29;20070;-64
2022/01/01 01:40:56;;;;;;;12.98;5.47;;;;;;;;;;4927710;29;20098;-65
2022/01/01 01:43:27;;;;;;;11.73;5.40;;;;;;;;;;4902317;29;20068;-64
2022/01/01 01:46:02;;;;;;;10.40;5.40;;;;;;;;;;4893343;29;20056;-64
2022/01/01 01:48:35;;;;;;;9.55;5.18;;;;;;;;;;4865141;29;20054;-64
2022/01/01 01:51:05;;;;;;;11.73;5.03;;;;;;;;;;4825873;29;20060;-64
2022/01/01 01:53:36;;;;;;;10.82;5.60;;;;;;;;;;4860380;29;20505;-64
2022/01/01 01:56:07;;;;;;;12.38;5.47;;;;;;;;;;4893158;29;20056;-65
2022/01/01 01:58:37;;;;;;;10.60;5.45;;;;;;;;;;4888580;29;20060;-65
2022/01/01 02:01:24;;;;;;;8.85;5.00;;;;;;;;;;4871817;29;20106;-66
2022/01/01 02:03:57;;;;;;;13.23;5.13;;;;;;;;;;4880084;29;20064;-66
2022/01/01 02:06:27;;;;;;;11.95;5.25;;;;;;;;;;4893659;29;20057;-64
2022/01/01 02:08:58;;;;;;;13.38;5.50;;;;;;;;;;4893300;29;20505;-66
2022/01/01 02:11:28;;;;;;;10.60;4.35;;;;;;;;;;4893906;29;20484;-64
2022/01/01 02:14:09;;;;;;;12.63;5.78;;;;;;;;;;4905250;29;20060;-64
2022/01/01 02:17:05;;;;;;;14.48;5.50;;;;;;;;;;4955436;28;20052;-65
2022/01/01 02:19:30;;;;;;;17.55;5.22;;;;;;;;;;4983728;28;20070;-64
2022/01/01 02:22:04;;;;;;;14.93;6.00;;;;;;;;;;4950078;29;20051;-65
2022/01/01 02:24:34;;;;;;;9.23;5.80;;;;;;;;;;4951827;28;20059;-65
2022/01/01 02:27:05;;;;;;;13.82;6.10;;;;;;;;;;4949950;29;20055;-65
2022/01/01 02:29:37;;;;;;;10.77;5.85;;;;;;;;;;4934742;29;20062;-65
2022/01/01 02:32:13;;;;;;;12.43;5.80;;;;;;;;;;4934618;29;20058;-66
2022/01/01 02:34:44;;;;;;;12.18;6.13;;;;;;;;;;4913866;29;20052;-65
2022/01/01 02:37:14;;;;;;;9.57;5.43;;;;;;;;;;4889549;29;20140;-65
2022/01/01 02:39:44;;;;;;;9.32;5.70;;;;;;;;;;4893115;29;20064;-64
2022/01/01 02:42:18;;;;;;;15.02;5.38;;;;;;;;;;4893472;29;20060;-65
2022/01/01 02:44:50;;;;;;;10.18;5.90;;;;;;;;;;4897063;29;20053;-64
2022/01/01 02:47:21;;;;;;;11.50;5.22;;;;;;;;;;4896352;29;20056;-66
2022/01/01 02:49:51;;;;;;;14.80;5.47;;;;;;;;;;4881544;29;20474;-64
2022/01/01 02:52:22;;;;;;;12.02;5.47;;;;;;;;;;4926960;29;20452;-64
2022/01/01 02:54:52;;;;;;;11.00;5.13;;;;;;;;;;4935003;29;20393;-64
2022/01/01 02:57:23;;;;;;;13.45;6.20;;;;;;;;;;4934357;29;20055;-64
2022/01/01 02:59:53;;;;;;;12.63;5.82;;;;;;;;;;4934510;29;20412;-64
2022/01/01 03:02:23;;;;;;;19.23;6.32;;;;;;;;;;4934011;29;20199;-64
2022/01/01 03:04:53;;;;;;;12.23;6.22;;;;;;;;;;4964072;28;20069;-65
2022/01/01 03:07:24;;;;;;;15.68;6.32;;;;;;;;;;4972496;28;20069;-65
2022/01/01 03:09:54;;;;;;;11.95;6.45;;;;;;;;;;4991839;28;20066;-64
2022/01/01 03:12:25;;;;;;;12.57;6.25;;;;;;;;;;4981513;28;20065;-65
2022/01/01 03:14:55;;;;;;;11.18;6.03;;;;;;;;;;4972685;28;20058;-65
2022/01/01 03:17:25;;;;;;;11.13;6.35;;;;;;;;;;4982436;28;20050;-65
2022/01/01 03:19:55;;;;;;;14.32;6.28;;;;;;;;;;4992061;28;20058;-65
2022/01/01 03:22:26;;;;;;;10.60;5.57;;;;;;;;;;4952758;28;20048;-64
2022/01/01 03:24:56;;;;;;;12.52;6.18;;;;;;;;;;4937304;29;20067;-65
2022/01/01 03:27:27;;;;;;;13.60;5.80;;;;;;;;;;4952744;29;20279;-67
2022/01/01 03:29:58;;;;;;;16.80;6.57;;;;;;;;;;4952699;29;20051;-64
2022/01/01 03:32:28;;;;;;;15.68;6.72;;;;;;;;;;4952765;29;20408;-65
2022/01/01 03:34:58;;;;;;;13.65;7.75;;;;;;;;;;4953110;29;20118;-65
2022/01/01 03:37:29;;;;;;;14.80;8.38;;;;;;;;;;4930089;29;20063;-65
2022/01/01 03:40:00;;;;;;;16.83;9.05;;;;;;;;;;4923552;29;20464;-64
2022/01/01 03:42:31;;;;;;;19.60;11.27;;;;;;;;;;4952546;29;20055;-65
2022/01/01 03:45:01;;;;;;;25.98;13.23;;;;;;;;;;4952555;29;20506;-64
2022/01/01 03:47:31;;;;;;;24.45;12.13;;;;;;;;;;4936550;29;20439;-64
2022/01/01 03:50:01;;;;;;;21.00;12.07;;;;;;;;;;4935784;28;20199;-64
2022/01/01 03:52:31;;;;;;;17.52;9.57;;;;;;;;;;4955790;28;20047;-64
2022/01/01 03:55:02;;;;;;;16.85;9.43;;;;;;;;;;4951583;28;20052;-64
2022/01/01 03:57:32;;;;;;;13.75;8.07;;;;;;;;;;4952362;28;20555;-64
2022/01/01 04:00:05;;;;;;;14.32;7.90;;;;;;;;;;4952535;28;20055;-65
2022/01/01 04:02:41;;;;;;;17.85;7.15;;;;;;;;;;4952750;28;20047;-65
2022/01/01 04:05:12;;;;;;;17.13;8.05;;;;;;;;;;4952442;28;20062;-65
2022/01/01 04:07:43;;;;;;;13.85;8.15;;;;;;;;;;4937062;29;20051;-65
2022/01/01 04:10:13;;;;;;;21.35;8.55;;;;;;;;;;4952508;29;20059;-65
2022/01/01 04:12:44;;;;;;;18.48;7.97;;;;;;;;;;4932887;29;20051;-64
2022/01/01 04:15:14;;;;;;;17.17;8.05;;;;;;;;;;4933373;29;20065;-64
2022/01/01 04:17:44;;;;;;;17.83;7.57;;;;;;;;;;4933181;29;20066;-65
2022/01/01 04:20:14;;;;;;;15.77;7.07;;;;;;;;;;4954091;28;20420;-64
2022/01/01 04:22:45;;;;;;;14.95;7.40;;;;;;;;;;4992447;28;20502;-65
2022/01/01 04:25:16;;;;;;;13.93;7.68;;;;;;;;;;5010340;28;20058;-66
2022/01/01 04:27:45;;;;;;;17.38;6.35;;;;;;;;;;5010554;28;20150;-64
2022/01/01 04:30:16;;;;;;;11.30;6.15;;;;;;;;;;4989955;28;20053;-64
2022/01/01 04:32:46;;;;;;;15.60;5.95;;;;;;;;;;4960024;28;20065;-64
2022/01/01 04:35:17;;;;;;;15.85;5.28;;;;;;;;;;4978067;28;20053;-66
2022/01/01 04:37:47;;;;;;;12.90;5.38;;;;;;;;;;4990426;28;20050;-64
2022/01/01 04:40:17;;;;;;;11.32;5.07;;;;;;;;;;4970914;28;20062;-64
2022/01/01 04:42:48;;;;;;;14.25;5.95;;;;;;;;;;4951190;29;20058;-64
2022/01/01 04:45:19;;;;;;;13.98;5.65;;;;;;;;;;4951326;29;20059;-64
2022/01/01 04:47:50;;;;;;;189.70;19.65;;;;;;;;;;4913114;29;20051;-66
2022/01/01 04:50:20;;;;;;;14.88;7.18;;;;;;;;;;4922463;29;20112;-64
2022/01/01 04:52:51;;;;;;;16.17;8.25;;;;;;;;;;4932596;29;20075;-64
2022/01/01 04:55:23;;;;;;;15.23;8.35;;;;;;;;;;4931801;29;20051;-65
2022/01/01 04:57:53;;;;;;;;;;;;;;;;;;4932642;29;20055;-64
2022/01/01 05:00:23;;;;;;;15.95;7.00;;;;;;;;;;4931966;29;19927;-67
2022/01/01 05:02:53;;;;;;;17.23;7.60;;;;;;;;;;4932164;29;20062;-63
2022/01/01 05:05:28;;;;;;;12.98;6.35;;;;;;;;;;4931576;29;20500;-66
2022/01/01 05:07:59;;;;;;;12.23;6.18;;;;;;;;;;4931527;29;20056;-65
2022/01/01 05:10:29;;;;;;;10.50;6.65;;;;;;;;;;4931781;29;20056;-66
2022/01/01 05:12:59;;;;;;;15.32;6.63;;;;;;;;;;4931688;29;20463;-65
2022/01/01 05:15:30;;;;;;;17.50;6.13;;;;;;;;;;4921942;29;20420;-64
2022/01/01 05:18:02;;;;;;;15.80;5.70;;;;;;;;;;4912976;29;20436;-66
2022/01/01 05:20:32;;;;;;;14.18;6.22;;;;;;;;;;4932228;28;20059;-65
2022/01/01 05:23:02;;;;;;;17.58;7.15;;;;;;;;;;4941908;29;20067;-65
2022/01/01 05:25:32;;;;;;;17.10;6.13;;;;;;;;;;4961109;28;20051;-65
2022/01/01 05:28:02;;;;;;;12.00;5.68;;;;;;;;;;4970525;28;20077;-64
2022/01/01 05:30:33;;;;;;;10.48;4.85;;;;;;;;;;4985487;28;20160;-66
2022/01/01 05:33:04;;;;;;;13.57;5.90;;;;;;;;;;4980391;28;20050;-68
2022/01/01 05:35:34;;;;;;;8.73;5.05;;;;;;;;;;4969777;28;20057;-65
2022/01/01 05:38:04;;;;;;;14.02;6.50;;;;;;;;;;4931595;29;20048;-65
2022/01/01 05:40:54;;;;;;;10.32;5.70;;;;;;;;;;4950387;29;20051;-64
2022/01/01 05:43:24;;;;;;;14.30;5.57;;;;;;;;;;4954495;28;20070;-65
2022/01/01 05:45:54;;;;;;;13.30;5.90;;;;;;;;;;4969655;28;20059;-65
2022/01/01 05:48:25;;;;;;;12.05;6.03;;;;;;;;;;4946757;29;20056;-65
2022/01/01 05:50:55;;;;;;;10.73;5.35;;;;;;;;;;4911665;29;20082;-65
2022/01/01 05:53:26;;;;;;;17.40;6.32;;;;;;;;;;4966202;28;20051;-64
2022/01/01 05:55:56;;;;;;;16.45;5.45;;;;;;;;;;4966299;28;20442;-65
2022/01/01 05:58:26;;;;;;;15.13;6.40;;;;;;;;;;4961854;28;20117;-64
2022/01/01 06:00:56;;;;;;;15.50;6.88;;;;;;;;;;4966243;28;20051;-66
2022/01/01 06:03:27;;;;;;;14.73;6.72;;;;;;;;;;4950726;29;20063;-65
2022/01/01 06:05:58;;;;;;;15.10;7.22;;;;;;;;;;4950414;29;20055;-65
2022/01/01 06:08:40;;;;;;;14.80;7.60;;;;;;;;;;4950461;29;20082;-66
2022/01/01 06:11:10;;;;;;;14.20;6.50;;;;;;;;;;4950427;28;20055;-65
2022/01/01 06:13:41;;;;;;;12.73;6.95;;;;;;;;;;4918565;29;20051;-68
2022/01/01 06:16:11;;;;;;;13.90;5.80;;;;;;;;;;4943775;29;20059;-66
2022/01/01 06:18:41;;;;;;;18.65;5.95;;;;;;;;;;4963635;28;20444;-65
2022/01/01 06:21:11;;;;;;;14.73;6.88;;;;;;;;;;4973397;28;20058;-66
2022/01/01 06:23:42;;;;;;;15.02;6.63;;;;;;;;;;4973443;28;20047;-65
2022/01/01 06:26:13;;;;;;;12.50;5.70;;;;;;;;;;4959738;28;20522;-65
2022/01/01 06:28:43;;;;;;;12.00;7.25;;;;;;;;;;4973154;28;20566;-65
2022/01/01 06:31:13;;;;;;;18.83;6.40;;;;;;;;;;4973051;28;20065;-65
2022/01/01 06:33:43;;;;;;;15.68;5.82;;;;;;;;;;4934400;28;20063;-66
2022/01/01 06:36:17;;;;;;;15.93;6.13;;;;;;;;;;4941026;28;20059;-65
2022/01/01 06:38:48;;;;;;;17.67;5.88;;;;;;;;;;4988818;28;20058;-69
2022/01/01 06:41:19;;;;;;;14.98;7.30;;;;;;;;;;4992271;28;20507;-65
2022/01/01 06:43:49;;;;;;;17.33;8.23;;;;;;;;;;4992404;28;20059;-66
2022/01/01 06:46:20;;;;;;;15.40;6.70;;;;;;;;;;4953058;29;20062;-64
2022/01/01 06:48:50;;;;;;;15.35;6.65;;;;;;;;;;4921937;29;20066;-65
2022/01/01 06:51:21;;;;;;;20.85;8.98;;;;;;;;;;4953936;29;20059;-65
2022/01/01 06:53:51;;;;;;;18.55;8.60;;;;;;;;;;4934213;29;20539;-65
2022/01/01 06:56:22;;;;;;;23.38;7.75;;;;;;;;;;4915036;29;20047;-66
2022/01/01 06:58:52;;;;;;;16.38;6.85;;;;;;;;;;4896188;29;20056;-65
2022/01/01 07:01:22;;;;;;;21.83;8.10;;;;;;;;;;4877792;29;20057;-65
2022/01/01 07:03:53;;;;;;;20.48;9.00;;;;;;;;;;4859045;29;20429;-65
2022/01/01 07:06:24;;;;;;;19.77;7.72;;;;;;;;;;4868349;29;20060;-65
2022/01/01 07:08:54;;;;;;;20.05;7.32;;;;;;;;;;4893354;29;20517;-65
2022/01/01 07:11:24;;;;;;;15.57;8.00;;;;;;;;;;4895812;29;20056;-66
2022/01/01 07:13:54;;;;;;;17.70;8.57;;;;;;;;;;4896450;29;20060;-65
2022/01/01 07:16:26;;;;;;;16.50;7.47;;;;;;;;;;4897804;29;20057;-65
2022/01/01 07:18:57;;;;;;;16.80;7.97;;;;;;;;;;4943491;29;20066;-65
2022/01/01 07:21:27;;;;;;;19.35;8.85;;;;;;;;;;4952764;29;20062;-65
2022/01/01 07:23:57;;;;;;;19.05;8.43;;;;;;;;;;4917863;29;20058;-65
2022/01/01 07:26:27;;;;;;;20.35;8.90;;;;;;;;;;4948152;29;20051;-66
2022/01/01 07:28:58;;;;;;;17.13;7.82;;;;;;;;;;4952180;28;20063;-66
2022/01/01 07:31:28;;;;;;;16.55;7.07;;;;;;;;;;4952418;29;20058;-66
2022/01/01 07:33:58;;;;;;;20.25;7.90;;;;;;;;;;4952694;29;20531;-65
2022/01/01 07:36:29;;;;;;;19.38;7.90;;;;;;;;;;4962354;28;20063;-65
2022/01/01 07:39:01;;;;;;;20.05;8.25;;;;;;;;;;4972242;28;20394;-65
2022/01/01 07:41:31;;;;;;;21.33;8.38;;;;;;;;;;4925368;28;20058;-65
2022/01/01 07:44:01;;;;;;;20.95;8.00;;;;;;;;;;4991288;28;20573;-67
2022/01/01 07:46:31;;;;;;;15.82;7.80;;;;;;;;;;4991477;28;20069;-65
2022/01/01 07:49:01;;;;;;;21.90;7.88;;;;;;;;;;4991443;28;20510;-65
2022/01/01 07:51:32;;;;;;;18.42;6.95;;;;;;;;;;4991517;28;20070;-65
2022/01/01 07:54:03;;;;;;;13.45;6.22;;;;;;;;;;4991434;28;20191;-66
2022/01/01 07:56:33;;;;;;;17.92;7.10;;;;;;;;;;4991203;28;20115;-65
2022/01/01 07:59:06;;;;;;;20.70;6.90;;;;;;;;;;4932653;29;20051;-67
2022/01/01 08:01:37;;;;;;;19.80;7.20;;;;;;;;;;4923539;29;20076;-65
2022/01/01 08:04:08;;;;;;;19.52;5.57;;;;;;;;;;4942662;29;20393;-67
2022/01/01 08:06:38;;;;;;;16.30;7.47;;;;;;;;;;4932172;29;20056;-65
2022/01/01 08:09:08;;;;;;;20.45;7.35;;;;;;;;;;4914207;29;20203;-67
2022/01/01 08:11:39;;;;;;;14.25;6.30;;;;;;;;;;4914044;29;20052;-66
2022/01/01 08:14:09;;;;;;;14.63;6.40;;;;;;;;;;4898298;29;20440;-65
2022/01/01 08:17:15;;;;;;;18.38;7.38;;;;;;;;;;4898721;29;20464;-66
2022/01/01 08:19:46;;;;;;;19.55;6.60;;;;;;;;;;4914124;29;20052;-65
2022/01/01 08:22:18;;;;;;;20.38;7.57;;;;;;;;;;4927720;29;20100;-68
2022/01/01 08:24:48;;;;;;;16.85;5.97;;;;;;;;;;4933123;29;20059;-65
2022/01/01 08:27:19;;;;;;;17.60;6.18;;;;;;;;;;4932639;29;20074;-66
2022/01/01 08:29:49;;;;;;;15.43;6.30;;;;;;;;;;4932640;29;20054;-65
2022/01/01 08:32:20;;;;;;;13.05;6.65;;;;;;;;;;4932578;29;20397;-67
2022/01/01 08:34:52;;;;;;;21.38;7.22;;;;;;;;;;4913368;29;20047;-66
2022/01/01 08:37:22;;;;;;;16.30;6.93;;;;;;;;;;4927801;29;20056;-65
2022/01/01 08:39:52;;;;;;;13.88;5.25;;;;;;;;;;4962629;28;20051;-66
2022/01/01 08:42:24;;;;;;;15.13;5.82;;;;;;;;;;4952215;28;20066;-65
2022/01/01 08:44:54;;;;;;;11.35;6.07;;;;;;;;;;4962869;28;20043;-66
2022/01/01 08:47:26;;;;;;;16.15;6.78;;;;;;;;;;4990075;28;20058;-65
2022/01/01 08:49:56;;;;;;;19.27;5.75;;;;;;;;;;4974836;28;20054;-66
2022/01/01 08:52:28;;;;;;;17.95;6.10;;;;;;;;;;4951309;29;20124;-67
2022/01/01 08:54:59;;;;;;;14.48;5.07;;;;;;;;;;4970399;28;20054;-65
2022/01/01 08:57:32;;;;;;;14.35;6.20;;;;;;;;;;4951057;29;20422;-65
2022/01/01 09:00:08;;;;;;;10.32;5.47;;;;;;;;;;4913169;29;20060;-65
2022/01/01 09:02:39;;;;;;;14.75;6.55;;;;;;;;;;4913219;29;20052;-65
2022/01/01 09:05:11;;;;;;;12.60;4.70;;;;;;;;;;4859834;29;20413;-66
2022/01/01 09:07:41;;;;;;;10.07;5.53;;;;;;;;;;4886436;29;20072;-66
2022/01/01 09:10:11;;;;;;;17.67;6.00;;;;;;;;;;4894348;29;20072;-66
2022/01/01 09:12:42;;;;;;;11.45;5.78;;;;;;;;;;4883125;29;20064;-69
2022/01/01 09:15:12;;;;;;;12.23;5.22;;;;;;;;;;4860399;29;20525;-66
2022/01/01 09:17:42;;;;;;;14.75;5.40;;;;;;;;;;4875088;29;20469;-66
2022/01/01 09:20:12;;;;;;;13.85;6.40;;;;;;;;;;4875382;29;20049;-66
2022/01/01 09:22:43;;;;;;;11.82;6.95;;;;;;;;;;4880622;29;20048;-66
2022/01/01 09:25:13;;;;;;;13.07;7.97;;;;;;;;;;4916878;29;20056;-66
2022/01/01 09:27:43;;;;;;;13.50;7.55;;;;;;;;;;4966789;28;20059;-66
2022/01/01 09:30:14;;;;;;;15.63;7.10;;;;;;;;;;4954919;28;20571;-66
2022/01/01 09:32:45;;;;;;;12.82;5.68;;;;;;;;;;4989465;28;20434;-65
2022/01/01 09:35:16;;;;;;;14.25;5.88;;;;;;;;;;4989390;28;20055;-66
2022/01/01 09:37:47;;;;;;;12.13;6.15;;;;;;;;;;4969789;28;20047;-66
2022/01/01 09:40:18;;;;;;;12.73;5.72;;;;;;;;;;4970173;28;20081;-67
2022/01/01 09:42:49;;;;;;;12.57;5.85;;;;;;;;;;4989366;28;20081;-67
2022/01/01 09:45:20;;;;;;;13.05;6.20;;;;;;;;;;5009197;28;20561;-65
2022/01/01 09:47:51;;;;;;;15.57;6.22;;;;;;;;;;4950716;29;20089;-67
2022/01/01 09:50:22;;;;;;;9.00;5.68;;;;;;;;;;4950866;29;20059;-65
2022/01/01 09:52:52;;;;;;;11.30;5.38;;;;;;;;;;4950310;28;20094;-65
2022/01/01 09:55:22;;;;;;;15.75;6.22;;;;;;;;;;4950692;29;20077;-64
2022/01/01 09:57:52;;;;;;;11.18;6.35;;;;;;;;;;4950852;29;20058;-64
2022/01/01 10:00:23;;;;;;;11.40;6.00;;;;;;;;;;4954740;28;20518;-65
2022/01/01 10:02:55;;;;;;;12.30;5.80;;;;;;;;;;4941486;28;20509;-65
2022/01/01 10:05:25;;;;;;;11.68;5.32;;;;;;;;;;4969722;28;20061;-65
2022/01/01 10:08:01;;;;;;;12.05;4.75;;;;;;;;;;4969902;28;20110;-65
2022/01/01 10:10:34;;;;;;;13.68;5.13;;;;;;;;;;4922109;28;20055;-66
2022/01/01 10:13:11;;;;;;;7.75;4.70;;;;;;;;;;4922490;28;20063;-65
2022/01/01 10:15:42;;;;;;;9.57;4.57;;;;;;;;;;4978255;28;20426;-66
2022/01/01 10:18:12;;;;;;;11.10;4.68;;;;;;;;;;4988877;28;20054;-65
2022/01/01 10:20:44;;;;;;;12.68;4.80;;;;;;;;;;4973148;28;20061;-66
2022/01/01 10:23:16;;;;;;;12.55;5.15;;;;;;;;;;4969732;28;20054;-65
2022/01/01 10:28:35;;;;;;;11.13;4.63;;;;;;;;;;4989501;28;20073;-65
2022/01/01 10:31:08;;;;;;;9.43;2.90;;;;;;;;;;4972866;28;20434;-65
2022/01/01 10:33:46;;;;;;;8.10;3.67;;;;;;;;;;4973517;28;20058;-65
2022/01/01 10:36:20;;;;;;;8.05;3.38;;;;;;;;;;4934502;29;20508;-65
2022/01/01 10:38:51;;;;;;;11.27;3.70;;;;;;;;;;4911886;29;20088;-64
2022/01/01 10:41:22;;;;;;;8.48;4.03;;;;;;;;;;4893157;29;20052;-66
2022/01/01 10:43:52;;;;;;;8.68;3.88;;;;;;;;;;4874302;29;20061;-65
2022/01/01 10:46:23;;;;;;;11.95;3.40;;;;;;;;;;4875188;29;20072;-65
2022/01/01 10:48:57;;;;;;;5.40;2.90;;;;;;;;;;4874484;29;20449;-66
2022/01/01 10:51:37;;;;;;;7.15;2.60;;;;;;;;;;4843885;29;20057;-65
2022/01/01 10:54:10;;;;;;;4.20;2.33;;;;;;;;;;4858772;29;20397;-65
2022/01/01 10:56:40;;;;;;;5.60;2.55;;;;;;;;;;4889515;29;21277;-65
2022/01/01 10:59:11;;;;;;;5.38;2.47;;;;;;;;;;4862233;29;20064;-65
2022/01/01 11:01:44;;;;;;;6.45;2.53;;;;;;;;;;4892933;29;20053;-67
2022/01/01 11:04:15;;;;;;;5.30;1.60;;;;;;;;;;4908714;29;20048;-64
2022/01/01 11:06:46;;;;;;;;;;;;;;;;;;4897013;29;20056;-64
2022/01/01 11:09:17;;;;;;;5.15;2.10;;;;;;;;;;4915016;29;19923;-64
2022/01/01 11:11:48;;;;;;;2.70;1.35;;;;;;;;;;4864148;29;20050;-63
2022/01/01 11:14:19;;;;;;;4.00;1.45;;;;;;;;;;4877262;29;20053;-65
2022/01/01 11:16:50;;;;;;;1.40;0.98;;;;;;;;;;4888985;29;20052;-66
2022/01/01 11:19:22;;;;;;;2.05;1.27;;;;;;;;;;4926719;29;20064;-65
2022/01/01 11:21:54;;;;;;;3.22;2.08;;;;;;;;;;4922112;29;20523;-64
2022/01/01 11:24:25;;;;;;;2.40;1.50;;;;;;;;;;4915158;29;20060;-64
2022/01/01 11:26:57;;;;;;;3.95;1.50;;;;;;;;;;4915219;29;20527;-65
2022/01/01 11:29:27;;;;;;;2.55;1.50;;;;;;;;;;4915361;29;20063;-66
2022/01/01 11:31:58;;;;;;;7.00;1.95;;;;;;;;;;4914847;29;20071;-65
2022/01/01 11:34:36;;;;;;;2.53;1.00;;;;;;;;;;4925897;29;20432;-64
2022/01/01 11:37:06;;;;;;;2.97;1.35;;;;;;;;;;4934082;29;20059;-64
2022/01/01 11:39:36;;;;;;;4.18;1.70;;;;;;;;;;4945364;29;20059;-65
2022/01/01 11:42:12;;;;;;;2.53;1.80;;;;;;;;;;4953038;28;20051;-64
2022/01/01 11:44:50;;;;;;;5.20;1.83;;;;;;;;;;4933619;29;20049;-66
2022/01/01 11:47:24;;;;;;;;;;;;;;;;;;4946909;29;20537;-65
2022/01/01 11:49:56;;;;;;;2.78;1.02;;;;;;;;;;4949940;28;20483;-65
2022/01/01 11:52:43;;;;;;;5.28;1.23;;;;;;;;;;4975649;28;20047;-65
2022/01/01 11:55:16;;;;;;;2.05;1.30;;;;;;;;;;4972029;28;20062;-66
2022/01/01 11:57:59;;;;;;;3.47;0.98;;;;;;;;;;4971867;28;20414;-68
2022/01/01 12:00:31;;;;;;;3.42;1.40;;;;;;;;;;4972248;28;20054;-69
2022/01/01 12:03:15;;;;;;;3.65;1.50;;;;;;;;;;4971757;28;20059;-67
2022/01/01 12:06:03;;;;;;;2.38;1.27;;;;;;;;;;4955681;28;20050;-67
2022/01/01 12:08:46;;;;;;;4.78;1.45;;;;;;;;;;4972022;28;20050;-66
2022/01/01 12:11:33;;;;;;;8.00;1.67;;;;;;;;;;4958034;28;20055;-68
2022/01/01 12:14:03;;;;;;;3.50;1.10;;;;;;;;;;4951943;29;20058;-68
2022/01/01 12:16:47;;;;;;;2.85;1.33;;;;;;;;;;4951779;28;20162;-65
2022/01/01 12:19:26;;;;;;;4.45;1.45;;;;;;;;;;4936215;29;20047;-69
2022/01/01 12:22:07;;;;;;;5.70;1.52;;;;;;;;;;4970975;28;20065;-65
2022/01/01 12:24:39;;;;;;;4.03;1.67;;;;;;;;;;4971075;28;20073;-65
2022/01/01 12:27:13;;;;;;;2.08;1.38;;;;;;;;;;4971499;28;20059;-65
2022/01/01 12:29:44;;;;;;;2.60;1.50;;;;;;;;;;4977941;28;20054;-70
2022/01/01 12:32:38;;;;;;;3.25;1.58;;;;;;;;;;4990621;28;20062;-66
2022/01/01 12:35:15;;;;;;;2.55;1.38;;;;;;;;;;4990636;28;20065;-65
2022/01/01 12:37:45;;;;;;;5.43;1.30;;;;;;;;;;4990354;28;20410;-67
2022/01/01 12:40:17;;;;;;;2.45;1.25;;;;;;;;;;4990699;28;20062;-65
2022/01/01 12:42:47;;;;;;;9.05;3.20;;;;;;;;;;5009696;28;20062;-65
2022/01/01 12:45:18;;;;;;;2.80;1.40;;;;;;;;;;4994332;28;20066;-65
2022/01/01 12:47:49;;;;;;;28.48;25.88;;;;;;;;;;5009997;28;20529;-67
2022/01/01 12:50:19;;;;;;;3.47;1.92;;;;;;;;;;4977275;28;20057;-69
2022/01/01 12:52:55;;;;;;;2.95;1.75;;;;;;;;;;4974388;28;20050;-66
2022/01/01 12:55:25;;;;;;;3.08;2.22;;;;;;;;;;4990363;28;20061;-65
2022/01/01 12:58:09;;;;;;;2.90;1.30;;;;;;;;;;4972839;28;20522;-65
2022/01/01 13:00:40;;;;;;;2.95;1.10;;;;;;;;;;4970764;28;20638;-65
2022/01/01 13:03:13;;;;;;;2.67;1.65;;;;;;;;;;4987217;28;20553;-68
2022/01/01 13:05:44;;;;;;;1.85;1.40;;;;;;;;;;4989680;28;20054;-65
2022/01/01 13:08:15;;;;;;;4.50;1.30;;;;;;;;;;4990375;28;20058;-64
2022/01/01 13:10:47;;;;;;;5.90;4.03;;;;;;;;;;4974319;28;20065;-66
2022/01/01 13:13:19;;;;;;;1.85;1.40;;;;;;;;;;4990090;28;20059;-66
2022/01/01 13:15:50;;;;;;;12.20;7.07;;;;;;;;;;4934699;29;20055;-66
2022/01/01 13:18:20;;;;;;;7.50;5.03;;;;;;;;;;4951244;29;20062;-66
2022/01/01 13:20:53;;;;;;;3.40;2.20;;;;;;;;;;4964403;28;20050;-65
2022/01/01 13:23:24;;;;;;;3.13;1.65;;;;;;;;;;4975326;28;20054;-67
2022/01/01 13:25:55;;;;;;;1.98;1.20;;;;;;;;;;4974291;28;20058;-69
2022/01/01 13:28:31;;;;;;;6.80;1.55;;;;;;;;;;4950334;28;20066;-68
2022/01/01 13:31:04;;;;;;;5.75;1.45;;;;;;;;;;4951150;29;20446;-69
2022/01/01 13:33:38;;;;;;;3.63;0.80;;;;;;;;;;4951201;29;20411;-66
2022/01/01 13:36:08;;;;;;;3.05;1.90;;;;;;;;;;4903498;29;20070;-67
2022/01/01 13:38:38;;;;;;;3.25;1.83;;;;;;;;;;4951047;29;20059;-66
2022/01/01 13:41:09;;;;;;;3.45;1.30;;;;;;;;;;4963288;28;20556;-67
2022/01/01 13:43:40;;;;;;;2.58;1.55;;;;;;;;;;4949403;28;20047;-68
2022/01/01 13:46:13;;;;;;;1.75;1.02;;;;;;;;;;4989769;28;20062;-66
2022/01/01 13:48:49;;;;;;;2.15;1.40;;;;;;;;;;4957141;28;20049;-64
2022/01/01 13:51:27;;;;;;;2.15;0.90;;;;;;;;;;4989578;28;20422;-67
2022/01/01 13:54:06;;;;;;;2.08;1.42;;;;;;;;;;4970700;28;20485;-67
2022/01/01 13:56:38;;;;;;;4.50;2.13;;;;;;;;;;5009136;28;20049;-66
2022/01/01 13:59:08;;;;;;;6.32;5.00;;;;;;;;;;4960633;28;20430;-65
2022/01/01 14:01:38;;;;;;;3.72;1.40;;;;;;;;;;5009199;28;20054;-65
2022/01/01 14:04:11;;;;;;;4.88;4.38;;;;;;;;;;5008965;28;20509;-66
2022/01/01 14:06:41;;;;;;;3.20;2.00;;;;;;;;;;5039696;28;20053;-66
2022/01/01 14:09:11;;;;;;;3.00;1.60;;;;;;;;;;5048853;28;20061;-68
2022/01/01 14:11:42;;;;;;;3.33;1.88;;;;;;;;;;5048842;28;20053;-67
2022/01/01 14:14:13;;;;;;;2.75;1.60;;;;;;;;;;5008738;28;20054;-65
2022/01/01 14:16:51;;;;;;;1.50;1.20;;;;;;;;;;4989055;28;20104;-65
2022/01/01 14:19:23;;;;;;;3.78;1.48;;;;;;;;;;4973403;28;20066;-67
2022/01/01 14:21:55;;;;;;;1.90;1.13;;;;;;;;;;5019448;28;20087;-66
2022/01/01 14:24:25;;;;;;;1.75;1.15;;;;;;;;;;5028560;28;20049;-64
2022/01/01 14:27:06;;;;;;;2.42;1.17;;;;;;;;;;5028764;28;20579;-64
2022/01/01 14:29:37;;;;;;;2.70;2.42;;;;;;;;;;5028655;28;20065;-64
2022/01/01 14:32:07;;;;;;;2.55;1.67;;;;;;;;;;5028361;28;20060;-66
2022/01/01 14:34:42;;;;;;;3.45;1.70;;;;;;;;;;5028484;28;20061;-65
2022/01/01 14:37:15;;;;;;;3.03;1.45;;;;;;;;;;5028527;28;20052;-64
2022/01/01 14:39:45;;;;;;;2.50;1.42;;;;;;;;;;5011029;28;20290;-65
2022/01/01 14:42:15;;;;;;;3.22;1.50;;;;;;;;;;4996587;28;20413;-66
2022/01/01 14:44:46;;;;;;;3.38;1.70;;;;;;;;;;4992721;28;20066;-67
2022/01/01 14:47:48;;;;;;;3.63;1.48;;;;;;;;;;4960179;28;20050;-66
2022/01/01 14:50:19;;;;;;;2.47;1.30;;;;;;;;;;4977039;28;20058;-66
2022/01/01 14:53:07;;;;;;;2.25;1.67;;;;;;;;;;5028111;28;20056;-65
2022/01/01 14:55:53;;;;;;;3.17;1.73;;;;;;;;;;5032155;28;20053;-68
2022/01/01 14:58:35;;;;;;;2.05;1.15;;;;;;;;;;5016044;28;20424;-66
2022/01/01 15:01:05;;;;;;;3.28;1.45;;;;;;;;;;5031991;28;20060;-65
2022/01/01 15:03:36;;;;;;;;;;;;;;;;;;5032263;28;20053;-66
2022/01/01 15:06:08;;;;;;;1.90;1.45;;;;;;;;;;4998611;28;20446;-66